Latest Weather Observations for Mount Lofty

IDS60801

Issued at 9:31 am CST Wednesday 5 August 2015 (issued every 30 minutes, with the page automatically refreshed every 10 minutes)

About weather observations | Map of weather stations | Latest weather observations for SA | Other Formats
Station Details ID: 023842 Name: MOUNT LOFTY Lat: -34.98 Lon: 138.71 Height: 685.0 m
Data from the previous 72 hours. | See also: Recent months at Mount Lofty
Date/Time
CST
Temp
°C
App
Temp
°C
Dew
Point
Rel
Hum
%
Delta-T
°C
Wind Press
QNH
hPa
Press
MSL
hPa
Rain
since 9 am
mm
Dir
 
Spd
km/h
Gust
km/h
Spd
kts
Gust
kts
05/09:30am 5.7 2.6 5.6 99 0.0 WSW 11 20 6 11 - - 0.2
05/09:00am 5.5 1.6 5.4 99 0.0 WSW 15 28 8 15 - - 10.8
05/08:30am 5.7 2.2 5.6 99 0.0 W 13 22 7 12 - - 10.8
05/08:00am 5.5 1.2 5.4 99 0.0 W 17 33 9 18 - - 10.4
05/07:30am 5.7 2.2 5.6 99 0.0 W 13 24 7 13 - - 10.4
05/07:00am 5.5 1.2 5.4 99 0.0 W 17 30 9 16 - - 10.2
05/06:30am 5.7 1.9 5.6 99 0.0 W 15 30 8 16 - - 10.0
05/06:00am 5.6 1.4 5.5 99 0.0 W 17 30 9 16 - - 9.6
05/05:30am 5.7 1.9 5.6 99 0.0 W 15 28 8 15 - - 9.6
05/05:00am 5.6 1.7 5.5 99 0.0 W 15 24 8 13 - - 9.4
05/04:30am 5.5 0.9 5.4 99 0.0 W 19 32 10 17 - - 9.4
05/04:00am 5.4 1.9 5.3 99 0.0 W 13 22 7 12 - - 9.4
05/03:30am 5.2 1.2 5.1 99 0.0 W 15 26 8 14 - - 9.4
05/03:00am 5.2 1.6 5.1 99 0.0 W 13 26 7 14 - - 9.4
05/02:30am 5.0 1.0 4.9 99 0.0 W 15 28 8 15 - - 9.4
05/02:00am 5.1 1.1 5.0 99 0.0 W 15 30 8 16 - - 9.4
05/01:30am 5.4 1.5 5.3 99 0.0 W 15 30 8 16 - - 9.4
05/01:00am 5.9 1.7 5.8 99 0.0 W 17 30 9 16 - - 9.4
05/12:30am 6.1 1.4 6.0 99 0.0 W 20 37 11 20 - - 9.2
05/12:00am 6.4 1.9 6.3 99 0.0 W 19 30 10 16 - - 8.8
 
Date/Time
CST
Temp
°C
App
Temp
°C
Dew
Point
Rel
Hum
%
Delta-T
°C
Wind Press
QNH
hPa
Press
MSL
hPa
Rain
since 9 am
mm
Dir
 
Spd
km/h
Gust
km/h
Spd
kts
Gust
kts
04/11:30pm 6.7 2.3 6.6 99 0.0 W 19 39 10 21 - - 7.6
04/11:00pm 6.6 2.2 6.5 99 0.0 W 19 39 10 21 - - 5.4
04/10:30pm 6.4 1.8 6.3 99 0.0 WNW 20 35 11 19 - - 1.6
04/10:00pm 6.3 2.2 6.2 99 0.0 W 17 33 9 18 - - 1.0
04/09:30pm 6.2 2.1 6.1 99 0.0 WNW 17 35 9 19 - - 1.0
04/09:00pm 6.1 2.3 6.0 99 0.0 W 15 28 8 15 - - 1.0
04/08:30pm 5.8 1.6 5.7 99 0.0 W 17 26 9 14 - - 1.0
04/08:00pm 5.8 2.0 5.7 99 0.0 W 15 28 8 15 - - 0.8
04/07:30pm 5.6 1.7 5.3 98 0.1 W 15 28 8 15 - - 0.8
04/07:00pm 5.3 1.7 5.0 98 0.1 W 13 30 7 16 - - 0.8
04/06:30pm 5.3 0.9 5.0 98 0.1 W 17 32 9 17 - - 0.8
04/06:00pm 5.5 1.2 5.2 98 0.1 W 17 33 9 18 - - 0.6
04/05:30pm 5.3 1.3 5.0 98 0.1 W 15 26 8 14 - - 0.6
04/05:00pm 5.4 1.4 5.1 98 0.1 W 15 26 8 14 - - 0.6
04/04:30pm 5.2 0.8 4.9 98 0.1 W 17 35 9 19 - - 0.6
04/04:00pm 5.5 1.6 5.2 98 0.1 W 15 32 8 17 - - 0.6
04/03:30pm 5.5 1.9 5.2 98 0.1 W 13 20 7 11 - - 0.6
04/03:00pm 5.5 1.9 5.2 98 0.1 W 13 22 7 12 - - 0.6
04/02:30pm 5.4 1.8 5.1 98 0.1 WNW 13 28 7 15 - - 0.4
04/02:00pm 5.2 1.6 4.9 98 0.1 WNW 13 28 7 15 - - 0.4
04/01:30pm 5.5 2.7 5.2 98 0.1 W 9 17 5 9 - - 0.4
04/01:00pm 5.2 2.0 4.9 98 0.1 W 11 20 6 11 - - 0.4
04/12:30pm 5.3 2.5 5.0 98 0.1 W 9 20 5 11 - - 0.4
04/12:00pm 5.1 2.2 4.8 98 0.1 W 9 20 5 11 - - 0.4
04/11:30am 5.2 2.3 4.9 98 0.1 WNW 9 17 5 9 - - 0.4
04/11:00am 4.7 1.8 4.6 99 0.0 WNW 9 19 5 10 - - 0.4
04/10:30am 4.6 1.7 4.5 99 0.0 W 9 24 5 13 - - 0.4
04/10:00am 4.6 1.7 4.5 99 0.0 W 9 17 5 9 - - 0.4
04/09:30am 4.4 1.8 4.3 99 0.0 W 7 15 4 8 - - 0.4
04/09:00am 4.3 1.3 4.2 99 0.0 W 9 17 5 9 - - 1.6
04/08:30am 4.3 1.7 4.2 99 0.0 W 7 9 4 5 - - 1.6
04/08:00am 3.9 1.2 3.8 99 0.0 W 7 9 4 5 - - 1.6
04/07:30am 3.5 0.9 3.4 99 0.0 W 6 13 3 7 - - 1.6
04/07:00am 3.7 1.0 3.6 99 0.0 W 7 13 4 7 - - 1.6
04/06:30am 3.7 1.0 3.6 99 0.0 W 7 15 4 8 - - 1.6
04/06:00am 3.7 1.0 3.6 99 0.0 W 7 15 4 8 - - 1.6
04/05:30am 3.7 0.6 3.6 99 0.0 W 9 15 5 8 - - 1.6
04/05:00am 3.9 1.2 3.8 99 0.0 W 7 15 4 8 - - 1.4
04/04:30am 3.8 1.1 3.7 99 0.0 W 7 11 4 6 - - 1.2
04/04:00am 4.0 1.3 3.7 98 0.1 W 7 11 4 6 - - 1.0
04/03:30am 4.0 1.3 3.7 98 0.1 W 7 11 4 6 - - 0.8
04/03:00am 4.0 1.5 3.7 98 0.1 W 6 11 3 6 - - 0.8
04/02:30am 3.6 0.8 3.3 98 0.1 W 7 13 4 7 - - 0.8
04/02:00am 3.6 1.0 3.3 98 0.1 W 6 7 3 4 - - 0.6
04/01:30am 3.7 0.9 3.4 98 0.1 W 7 15 4 8 - - 0.6
04/01:00am 3.5 0.9 3.1 97 0.2 W 6 11 3 6 - - 0.6
04/12:30am 3.2 0.5 2.6 96 0.3 W 6 9 3 5 - - 0.6
04/12:00am 3.3 0.6 2.6 95 0.3 WSW 6 13 3 7 - - 0.6
 
Date/Time
CST
Temp
°C
App
Temp
°C
Dew
Point
Rel
Hum
%
Delta-T
°C
Wind Press
QNH
hPa
Press
MSL
hPa
Rain
since 9 am
mm
Dir
 
Spd
km/h
Gust
km/h
Spd
kts
Gust
kts
03/11:30pm 3.1 0.2 2.5 96 0.2 WSW 7 15 4 8 - - 0.6
03/11:00pm 3.5 0.7 3.1 97 0.2 WSW 7 15 4 8 - - 0.6
03/10:30pm 3.8 1.0 3.2 96 0.3 SW 7 11 4 6 - - 0.6
03/10:00pm 3.6 0.9 2.7 94 0.4 SW 6 11 3 6 - - 0.6
03/09:30pm 3.7 0.7 2.1 89 0.7 WSW 7 17 4 9 - - 0.6
03/09:00pm 3.6 0.7 2.7 94 0.4 SW 7 15 4 8 - - 0.6
03/08:30pm 3.7 0.8 2.8 94 0.4 SW 7 15 4 8 - - 0.6
03/08:00pm 3.9 1.1 3.0 94 0.4 SW 7 13 4 7 - - 0.6
03/07:30pm 4.0 1.2 3.4 96 0.3 SW 7 15 4 8 - - 0.6
03/07:00pm 4.2 1.7 3.6 96 0.3 SW 6 9 3 5 - - 0.6
03/06:30pm 4.0 1.4 3.3 95 0.3 WSW 6 13 3 7 - - 0.6
03/06:00pm 4.3 2.1 3.4 94 0.4 WSW 4 11 2 6 - - 0.6
03/05:30pm 5.0 2.4 4.1 94 0.4 W 7 13 4 7 - - 0.4
03/05:00pm 5.1 2.5 4.4 95 0.3 SW 7 17 4 9 - - 0.4
03/04:30pm 5.3 2.7 4.4 94 0.4 WSW 7 15 4 8 - - 0.4
03/04:00pm 5.7 3.2 4.7 93 0.5 SW 7 13 4 7 - - 0.4
03/03:30pm 6.6 3.7 4.8 88 0.8 W 9 20 5 11 - - 0.4
03/03:00pm 5.8 2.1 4.4 91 0.6 W 13 24 7 13 - - 0.4
03/02:30pm 6.8 4.5 5.7 93 0.5 WSW 7 15 4 8 - - 0.4
03/02:00pm 7.0 3.7 4.8 86 1.0 WSW 11 20 6 11 - - 0.4
03/01:30pm 8.3 6.0 5.9 85 1.1 WSW 7 19 4 10 - - 0.4
03/01:00pm 7.3 4.3 5.8 90 0.7 WSW 11 22 6 12 - - 0.4
03/12:30pm 5.9 2.4 5.3 96 0.3 WSW 13 28 7 15 - - 0.4
03/12:00pm 5.3 2.1 4.9 97 0.2 WSW 11 20 6 11 - - 0.4
03/11:30am 6.2 3.2 5.9 98 0.1 W 11 20 6 11 - - 0.4
03/11:00am 5.6 2.4 5.3 98 0.1 W 11 24 6 13 - - 0.4
03/10:30am 5.2 2.0 4.9 98 0.1 W 11 22 6 12 - - 0.4
03/10:00am 5.4 1.8 5.1 98 0.1 WSW 13 22 7 12 - - 0.0
03/09:30am 5.3 1.7 5.0 98 0.1 WSW 13 24 7 13 - - 0.0
03/09:00am 5.3 0.9 5.0 98 0.1 W 17 32 9 17 - - 6.0
03/08:30am 5.3 1.3 5.0 98 0.1 W 15 28 8 15 - - 5.8
03/08:00am 5.4 1.4 5.1 98 0.1 WSW 15 32 8 17 - - 5.8
03/07:30am 5.4 1.4 5.1 98 0.1 WSW 15 33 8 18 - - 5.8
03/07:00am 5.5 1.6 5.2 98 0.1 W 15 28 8 15 - - 5.8
03/06:30am 5.6 1.3 5.3 98 0.1 W 17 28 9 15 - - 5.8
03/06:00am 5.5 1.9 5.2 98 0.1 W 13 26 7 14 - - 5.6
03/05:30am 5.4 1.1 5.1 98 0.1 W 17 28 9 15 - - 5.6
03/05:00am 5.2 1.2 4.9 98 0.1 W 15 30 8 16 - - 5.6
03/04:30am 4.9 0.5 4.8 99 0.0 W 17 32 9 17 - - 5.6
03/04:00am 5.4 1.1 5.1 98 0.1 W 17 37 9 20 - - 5.6
03/03:30am 5.8 1.2 5.7 99 0.0 W 19 37 10 20 - - 5.6
03/03:00am 6.1 1.4 6.0 99 0.0 W 20 35 11 19 - - 5.4
03/02:30am 6.4 2.3 6.3 99 0.0 W 17 32 9 17 - - 5.4
03/02:00am 6.6 2.0 6.5 99 0.0 W 20 35 11 19 - - 4.0
03/01:30am 6.7 2.1 6.6 99 0.0 W 20 54 11 29 - - 2.4
03/01:00am 6.8 2.4 6.5 98 0.1 W 19 39 10 21 - - 2.2
03/12:30am 6.7 2.3 6.4 98 0.1 W 19 33 10 18 - - 2.2
03/12:00am 6.5 1.4 6.2 98 0.1 W 22 39 12 21 - - 2.2
 
Date/Time
CST
Temp
°C
App
Temp
°C
Dew
Point
Rel
Hum
%
Delta-T
°C
Wind Press
QNH
hPa
Press
MSL
hPa
Rain
since 9 am
mm
Dir
 
Spd
km/h
Gust
km/h
Spd
kts
Gust
kts
02/11:30pm 6.3 1.6 6.0 98 0.1 W 20 41 11 22 - - 1.8
02/11:00pm 6.3 1.8 6.0 98 0.1 W 19 30 10 16 - - 1.6
02/10:30pm 6.3 1.6 6.0 98 0.1 W 20 41 11 22 - - 1.6
02/10:00pm 6.4 2.3 6.1 98 0.1 W 17 30 9 16 - - 1.6
02/09:30pm 6.4 2.7 6.1 98 0.1 W 15 28 8 15 - - 1.0
02/09:00pm 6.0 1.4 5.6 97 0.2 W 19 30 10 16 - - 1.0
02/08:30pm 5.7 1.1 5.4 98 0.1 W 19 30 10 16 - - 1.0
02/08:00pm 6.0 1.2 5.7 98 0.1 W 20 33 11 18 - - 1.0
02/07:30pm 6.8 2.2 6.5 98 0.1 W 20 33 11 18 - - 1.0
02/07:00pm 6.7 2.1 6.4 98 0.1 W 20 37 11 20 - - 0.8
02/06:30pm 6.9 2.5 6.6 98 0.1 W 19 35 10 19 - - 0.4
02/06:00pm 6.8 2.4 6.5 98 0.1 W 19 37 10 20 - - 0.4
02/05:30pm 6.6 1.9 6.2 97 0.2 W 20 35 11 19 - - 0.4
02/05:00pm 6.4 1.7 6.0 97 0.2 W 20 33 11 18 - - 0.4
02/04:30pm 6.8 2.2 6.4 97 0.2 W 20 43 11 23 - - 0.4
02/04:00pm 6.8 2.1 6.2 96 0.3 W 20 39 11 21 - - 0.4
02/03:30pm 7.0 3.0 6.6 97 0.2 W 17 33 9 18 - - 0.4
02/03:00pm 6.7 1.7 6.3 97 0.2 W 22 50 12 27 - - 0.4
02/02:30pm 6.8 2.4 6.5 98 0.1 W 19 37 10 20 - - 0.4
02/02:00pm 6.6 2.1 6.3 98 0.1 W 19 37 10 20 - - 0.4
02/01:30pm 6.3 1.8 6.0 98 0.1 W 19 33 10 18 - - 0.2
02/01:00pm 6.4 2.3 6.3 99 0.0 W 17 33 9 18 - - 0.2
02/12:30pm 6.1 1.5 5.8 98 0.1 W 19 30 10 16 - - 0.2
02/12:00pm 5.9 1.7 5.8 99 0.0 W 17 32 9 17 - - 0.0
02/11:30am 6.0 1.5 5.9 99 0.0 W 19 39 10 21 - - 0.0
02/11:00am 5.7 1.1 5.6 99 0.0 W 19 30 10 16 - - 0.0
02/10:30am 5.3 0.6 5.0 98 0.1 W 19 33 10 18 - - 0.0
02/10:00am 4.9 0.1 4.8 99 0.0 W 19 30 10 16 - - 0.0

Other Formats:

Comma delimited format used in spreadsheet applications
http://www.bom.gov.au/fwo/IDS60801/IDS60801.95678.axf

JavaScript Object Notation format (JSON) in row-major order
http://www.bom.gov.au/fwo/IDS60801/IDS60801.95678.json